Time;durP1;ratioP1;P1;durP2;ratioP2;P2;SDS_P1;SDS_P2;PMS_P1;PMS_P2;Temp;Humidity;BMP_temperature;BMP_pressure;BME280_temperature;BME280_humidity;BME280_pressure;Samples;Min_cycle;Max_cycle;Signal;HPM_P1;HPM_P2
2021/10/10 00:01:45;;;;;;;25.33;10.17;;;3.80;1.00;;;;;;4441653;28;653409;-67
2021/10/10 00:04:33;;;;;;;26.10;9.43;;;3.80;1.00;;;;;;4448360;28;656301;-66
2021/10/10 00:07:20;;;;;;;26.30;9.95;;;3.80;1.00;;;;;;4430598;28;653797;-67
2021/10/10 00:10:09;;;;;;;23.23;9.63;;;3.80;1.00;;;;;;4446724;28;654796;-66
2021/10/10 00:12:58;;;;;;;23.17;8.90;;;3.80;1.00;;;;;;4431414;28;653425;-66
2021/10/10 00:15:45;;;;;;;30.00;10.37;;;3.80;1.00;;;;;;4434563;28;654000;-66
2021/10/10 00:18:33;;;;;;;29.63;10.20;;;3.80;1.00;;;;;;4448856;28;656519;-66
2021/10/10 00:21:20;;;;;;;26.88;10.05;;;3.70;21.80;;;;;;4431895;28;655145;-67
2021/10/10 00:24:08;;;;;;;32.30;10.13;;;3.70;8.70;;;;;;4448933;28;655791;-66
2021/10/10 00:26:56;;;;;;;26.50;10.67;;;3.70;95.80;;;;;;4430681;28;655397;-66
2021/10/10 00:29:45;;;;;;;24.00;10.73;;;3.70;99.90;;;;;;4447727;28;657447;-66
2021/10/10 00:32:32;;;;;;;29.13;11.10;;;3.60;99.90;;;;;;4424650;28;655863;-66
2021/10/10 00:35:21;;;;;;;33.60;10.70;;;3.60;99.90;;;;;;4444691;28;656824;-67
2021/10/10 00:38:08;;;;;;;29.50;10.10;;;3.60;99.90;;;;;;4452254;28;655767;-66
2021/10/10 00:40:56;;;;;;;25.27;9.87;;;3.60;99.90;;;;;;4428968;28;655688;-67
2021/10/10 00:43:43;;;;;;;25.17;8.93;;;3.60;99.90;;;;;;4453164;28;656920;-66
2021/10/10 00:46:36;;;;;;;24.63;9.00;;;3.60;99.90;;;;;;4429110;28;654357;-66
2021/10/10 00:49:26;;;;;;;23.37;9.00;;;3.60;99.90;;;;;;4423775;28;655775;-66
2021/10/10 00:52:18;;;;;;;23.33;9.60;;;3.60;99.90;;;;;;4426478;28;655517;-67
2021/10/10 00:55:07;;;;;;;25.33;9.70;;;3.60;99.90;;;;;;4407071;28;655416;-66
2021/10/10 00:57:55;;;;;;;26.33;9.53;;;3.60;99.90;;;;;;4445831;28;654289;-66
2021/10/10 01:00:44;;;;;;;26.07;10.23;;;3.50;99.90;;;;;;4426538;28;656697;-66
2021/10/10 01:03:34;;;;;;;26.00;10.77;;;3.50;99.90;;;;;;4428632;28;655546;-66
2021/10/10 01:06:22;;;;;;;24.97;9.73;;;3.50;99.90;;;;;;4429273;28;656808;-66
2021/10/10 01:09:12;;;;;;;26.20;9.63;;;3.40;99.90;;;;;;4448977;28;654250;-66
2021/10/10 01:12:00;;;;;;;24.70;9.57;;;3.40;99.90;;;;;;4423428;28;655640;-66
2021/10/10 01:14:50;;;;;;;24.93;11.10;;;3.40;99.90;;;;;;4425903;28;655724;-66
2021/10/10 01:17:39;;;;;;;29.37;10.13;;;3.40;99.90;;;;;;4421048;28;656196;-66
2021/10/10 01:20:28;;;;;;;30.93;10.67;;;3.40;99.90;;;;;;4425355;28;656151;-66
2021/10/10 01:23:17;;;;;;;28.53;11.40;;;3.40;99.90;;;;;;4427238;28;655370;-66
2021/10/10 01:26:05;;;;;;;27.45;10.18;;;3.40;1.00;;;;;;4446701;28;656228;-66
2021/10/10 01:28:52;;;;;;;34.13;12.03;;;3.30;1.00;;;;;;4421943;28;656292;-67
2021/10/10 01:31:42;;;;;;;25.93;11.47;;;3.30;1.00;;;;;;4433521;28;655215;-66
2021/10/10 01:34:30;;;;;;;37.10;13.00;;;3.20;1.00;;;;;;4418119;28;654534;-67
2021/10/10 01:37:18;;;;;;;31.27;13.47;;;3.20;1.00;;;;;;4443535;28;656121;-66
2021/10/10 01:40:09;;;;;;;32.77;12.70;;;3.20;1.00;;;;;;4423771;28;654185;-66
2021/10/10 01:42:56;;;;;;;34.47;12.25;;;3.10;1.00;;;;;;4426907;28;655602;-66
2021/10/10 01:45:44;;;;;;;34.63;13.40;;;3.10;1.00;;;;;;4443817;28;654881;-66
2021/10/10 01:48:32;;;;;;;35.47;13.33;;;3.10;1.00;;;;;;4422505;28;654704;-66
2021/10/10 01:51:22;;;;;;;27.70;12.23;;;3.00;1.00;;;;;;4442803;28;655194;-66
2021/10/10 01:54:10;;;;;;;26.97;12.03;;;3.00;1.00;;;;;;4421871;28;654150;-66
2021/10/10 01:57:01;;;;;;;27.63;12.27;;;2.90;1.00;;;;;;4419648;28;655260;-67
2021/10/10 01:59:50;;;;;;;26.53;12.20;;;2.90;1.00;;;;;;4405112;28;655834;-66
2021/10/10 02:02:39;;;;;;;28.90;12.30;;;2.90;13.50;;;;;;4407634;28;655000;-66
2021/10/10 02:05:28;;;;;;;32.70;12.60;;;2.80;62.00;;;;;;4411919;28;655288;-67
2021/10/10 02:08:17;;;;;;;32.77;11.57;;;2.80;99.90;;;;;;4413769;28;655539;-66
2021/10/10 02:11:05;;;;;;;27.27;11.98;;;2.80;99.90;;;;;;4443974;28;656411;-66
2021/10/10 02:13:55;;;;;;;29.60;12.27;;;2.70;99.90;;;;;;4422037;28;656671;-66
2021/10/10 02:16:43;;;;;;;32.93;12.63;;;2.70;99.90;;;;;;4422532;28;657532;-66
2021/10/10 02:19:32;;;;;;;26.10;12.03;;;2.60;99.90;;;;;;4423974;28;655353;-66
2021/10/10 02:22:21;;;;;;;29.20;12.07;;;2.70;99.90;;;;;;4448563;28;657325;-66
2021/10/10 02:25:10;;;;;;;31.73;12.80;;;2.60;99.90;;;;;;4423715;28;655494;-66
2021/10/10 02:28:00;;;;;;;32.57;13.00;;;2.60;99.90;;;;;;4423028;28;655768;-66
2021/10/10 02:30:51;;;;;;;29.07;13.03;;;2.60;99.90;;;;;;4428018;28;657599;-66
2021/10/10 02:33:39;;;;;;;29.80;13.20;;;2.50;99.90;;;;;;4421487;28;656511;-66
2021/10/10 02:36:28;;;;;;;35.30;14.57;;;2.50;99.90;;;;;;4429109;28;655785;-66
2021/10/10 02:39:17;;;;;;;35.27;14.70;;;2.50;99.90;;;;;;4424195;28;655750;-66
2021/10/10 02:42:06;;;;;;;44.97;15.53;;;2.50;99.90;;;;;;4446485;28;656356;-66
2021/10/10 02:44:55;;;;;;;41.00;15.53;;;2.50;99.90;;;;;;4425680;28;656593;-65
2021/10/10 02:47:46;;;;;;;39.20;15.87;;;2.40;99.90;;;;;;4428808;28;656741;-65
2021/10/10 02:50:35;;;;;;;36.07;14.47;;;2.40;99.90;;;;;;4420706;28;656139;-65
2021/10/10 02:53:23;;;;;;;36.43;14.63;;;2.30;99.90;;;;;;4422460;28;656256;-66
2021/10/10 02:56:15;;;;;;;37.80;14.93;;;2.30;99.90;;;;;;4432812;28;655683;-66
2021/10/10 02:59:04;;;;;;;40.53;15.43;;;2.30;99.90;;;;;;4423022;28;656509;-65
2021/10/10 03:01:53;;;;;;;33.97;14.47;;;2.20;1.00;;;;;;4424719;28;656029;-65
2021/10/10 03:04:44;;;;;;;35.50;14.33;;;2.20;1.00;;;;;;4431576;28;654734;-66
2021/10/10 03:07:32;;;;;;;33.07;13.63;;;2.20;1.00;;;;;;4428218;28;654696;-65
2021/10/10 03:10:20;;;;;;;36.33;15.07;;;2.10;1.00;;;;;;4448147;28;654277;-65
2021/10/10 03:13:10;;;;;;;41.10;14.13;;;2.10;1.00;;;;;;4423308;28;655566;-65
2021/10/10 03:15:59;;;;;;;34.57;13.93;;;2.10;1.00;;;;;;4424659;28;656899;-66
2021/10/10 03:18:48;;;;;;;37.93;14.40;;;2.00;1.00;;;;;;4425060;28;656166;-65
2021/10/10 03:21:39;;;;;;;34.20;14.20;;;2.00;1.00;;;;;;4429030;28;654196;-65
2021/10/10 03:24:27;;;;;;;32.92;13.68;;;2.00;1.00;;;;;;4426488;28;654867;-65
2021/10/10 03:27:17;;;;;;;43.13;14.40;;;2.00;1.00;;;;;;4450135;28;654235;-68
2021/10/10 03:30:05;;;;;;;32.83;14.20;;;1.90;1.00;;;;;;4408015;28;654996;-66
2021/10/10 03:32:53;;;;;;;41.07;15.93;;;1.90;1.00;;;;;;4401237;28;655651;-65
2021/10/10 03:35:40;;;;;;;36.00;14.87;;;1.90;1.00;;;;;;4416357;28;654978;-66
2021/10/10 03:38:29;;;;;;;41.30;15.93;;;1.90;1.00;;;;;;4429095;28;655589;-65
2021/10/10 03:41:17;;;;;;;39.37;15.00;;;1.90;1.00;;;;;;4411934;28;655081;-65
2021/10/10 03:44:06;;;;;;;31.90;14.23;;;1.80;1.00;;;;;;4430014;28;654267;-66
2021/10/10 03:46:53;;;;;;;39.70;14.27;;;1.80;1.00;;;;;;4431312;28;654665;-65
2021/10/10 03:49:41;;;;;;;37.37;14.97;;;1.80;1.00;;;;;;4405660;28;654275;-65
2021/10/10 03:52:29;;;;;;;40.80;16.23;;;1.80;1.00;;;;;;4431277;28;655758;-66
2021/10/10 03:55:28;;;;;;;37.00;15.10;;;1.80;1.00;;;;;;4411163;28;654768;-65
2021/10/10 03:58:16;;;;;;;37.33;14.73;;;1.80;1.00;;;;;;4387677;28;654876;-65
2021/10/10 04:01:04;;;;;;;39.30;14.93;;;1.80;1.00;;;;;;4429549;28;655844;-65
2021/10/10 04:03:52;;;;;;;39.17;14.40;;;1.80;1.00;;;;;;4409820;28;654785;-65
2021/10/10 04:06:45;;;;;;;39.07;14.87;;;1.80;1.00;;;;;;4422440;28;654547;-67
2021/10/10 04:09:36;;;;;;;34.40;14.70;;;1.80;1.00;;;;;;4384345;28;655203;-66
2021/10/10 04:12:27;;;;;;;33.80;13.30;;;1.80;1.00;;;;;;4405070;28;655702;-67
2021/10/10 04:15:16;;;;;;;40.67;14.57;;;1.70;1.00;;;;;;4403976;28;654914;-66
2021/10/10 04:18:05;;;;;;;34.23;14.67;;;1.70;1.00;;;;;;4406892;28;655579;-66
2021/10/10 04:20:56;;;;;;;36.13;14.93;;;1.70;1.00;;;;;;4407337;28;655272;-66
2021/10/10 04:23:46;;;;;;;36.73;15.57;;;1.60;1.00;;;;;;4407038;28;655460;-66
2021/10/10 04:26:35;;;;;;;34.67;14.20;;;1.50;1.00;;;;;;4405464;28;654492;-67
2021/10/10 04:29:25;;;;;;;32.87;13.83;;;1.50;1.00;;;;;;4406118;28;655561;-66
2021/10/10 04:32:13;;;;;;;38.47;14.80;;;1.50;1.00;;;;;;4408769;28;656256;-67
2021/10/10 04:35:05;;;;;;;35.10;14.60;;;1.50;1.00;;;;;;4411115;28;654397;-66
2021/10/10 04:37:54;;;;;;;36.00;14.60;;;1.50;1.00;;;;;;4407208;28;655467;-67
2021/10/10 04:40:42;;;;;;;35.17;14.10;;;1.50;1.00;;;;;;4416101;28;654634;-66
2021/10/10 04:43:30;;;;;;;29.87;12.93;;;1.50;1.00;;;;;;4424768;28;654449;-67
2021/10/10 04:46:19;;;;;;;40.37;13.67;;;1.50;1.00;;;;;;4432653;28;655590;-67
2021/10/10 04:49:07;;;;;;;33.23;13.63;;;1.40;1.00;;;;;;4413675;28;655085;-66
2021/10/10 04:51:54;;;;;;;33.37;13.50;;;1.50;1.00;;;;;;4426025;28;654705;-67
2021/10/10 04:54:42;;;;;;;26.97;12.47;;;1.40;1.00;;;;;;4408212;28;655453;-66
2021/10/10 04:57:30;;;;;;;28.67;12.47;;;1.40;1.00;;;;;;4424966;28;654492;-67
2021/10/10 05:00:18;;;;;;;31.40;13.57;;;1.40;1.00;;;;;;4428824;28;655640;-67
2021/10/10 05:03:07;;;;;;;29.02;12.68;;;1.40;1.00;;;;;;4411500;28;655522;-67
2021/10/10 05:05:55;;;;;;;28.43;12.47;;;1.50;1.00;;;;;;4431737;28;655322;-66
2021/10/10 05:08:42;;;;;;;30.90;12.63;;;1.50;1.00;;;;;;4412412;28;655754;-67
2021/10/10 05:11:30;;;;;;;33.80;13.33;;;1.60;1.00;;;;;;4435969;28;655255;-66
2021/10/10 05:14:17;;;;;;;38.40;12.53;;;1.60;1.00;;;;;;4406367;28;656102;-66
2021/10/10 05:17:05;;;;;;;31.30;12.13;;;1.70;1.00;;;;;;4438894;28;655701;-66
2021/10/10 05:19:54;;;;;;;32.03;12.10;;;1.70;1.00;;;;;;4413080;28;655432;-66
2021/10/10 05:22:42;;;;;;;29.20;11.53;;;1.80;1.00;;;;;;4416913;28;654482;-66
2021/10/10 05:25:29;;;;;;;31.37;12.77;;;1.80;1.00;;;;;;4435758;28;653910;-66
2021/10/10 05:28:17;;;;;;;31.43;12.30;;;1.90;1.00;;;;;;4414147;28;655637;-66
2021/10/10 05:31:04;;;;;;;32.47;12.90;;;2.00;1.00;;;;;;4434966;28;654811;-66
2021/10/10 05:33:52;;;;;;;32.03;12.50;;;2.10;1.00;;;;;;4419430;28;655592;-67
2021/10/10 05:36:41;;;;;;;26.48;11.60;;;2.10;1.00;;;;;;4434685;28;654810;-66
2021/10/10 05:39:28;;;;;;;36.92;13.35;;;2.20;1.00;;;;;;4417653;28;656181;-66
2021/10/10 05:42:19;;;;;;;36.57;12.17;;;2.30;1.00;;;;;;4419605;28;655267;-66
2021/10/10 05:45:07;;;;;;;34.40;12.73;;;2.40;1.00;;;;;;4420226;28;654704;-66
2021/10/10 05:47:54;;;;;;;33.28;13.10;;;2.50;1.00;;;;;;4447284;28;654111;-66
2021/10/10 05:50:42;;;;;;;30.63;12.87;;;2.60;1.00;;;;;;4416723;28;655116;-66
2021/10/10 05:53:31;;;;;;;30.60;13.25;;;2.70;1.00;;;;;;4442700;28;654973;-66
2021/10/10 05:56:19;;;;;;;44.80;14.70;;;2.80;99.90;;;;;;4421949;28;654619;-67
2021/10/10 05:59:08;;;;;;;32.43;13.83;;;2.90;99.90;;;;;;4423022;28;655369;-67
2021/10/10 06:01:56;;;;;;;34.53;14.27;;;3.10;99.90;;;;;;4419346;28;655615;-66
2021/10/10 06:04:43;;;;;;;33.60;14.00;;;3.20;99.90;;;;;;4443237;28;656239;-66
2021/10/10 06:07:31;;;;;;;34.13;13.40;;;3.30;99.90;;;;;;4425370;28;655281;-66
2021/10/10 06:10:20;;;;;;;32.00;13.30;;;3.40;99.90;;;;;;4440787;28;656907;-66
2021/10/10 06:13:08;;;;;;;31.10;13.03;;;3.60;99.90;;;;;;4424344;28;657201;-66
2021/10/10 06:15:56;;;;;;;31.33;13.65;;;3.70;99.90;;;;;;4426970;28;655940;-66
2021/10/10 06:18:43;;;;;;;32.40;13.60;;;3.90;99.90;;;;;;4448890;28;656271;-66
2021/10/10 06:21:31;;;;;;;45.57;16.13;;;4.00;99.90;;;;;;4425812;28;655859;-67
2021/10/10 06:24:19;;;;;;;36.80;14.40;;;4.10;99.90;;;;;;4442759;28;656352;-66
2021/10/10 06:27:08;;;;;;;34.90;15.27;;;4.20;1.00;;;;;;4417358;28;656240;-65
2021/10/10 06:29:55;;;;;;;25.67;11.30;;;4.40;99.90;;;;;;4419484;28;654425;-66
2021/10/10 06:32:43;;;;;;;38.97;15.50;;;4.50;1.00;;;;;;4430965;28;656591;-67
2021/10/10 06:35:31;;;;;;;40.00;15.67;;;4.50;1.00;;;;;;4406433;28;654651;-66
2021/10/10 06:38:18;;;;;;;38.43;16.03;;;4.60;1.00;;;;;;4432428;28;655617;-66
2021/10/10 06:41:06;;;;;;;42.13;16.00;;;4.70;1.00;;;;;;4408000;28;654464;-66
2021/10/10 06:43:55;;;;;;;33.37;15.37;;;4.80;1.00;;;;;;4431029;28;656379;-65
2021/10/10 06:46:42;;;;;;;38.90;16.47;;;4.90;61.20;;;;;;4402975;28;655665;-66
2021/10/10 06:49:30;;;;;;;38.67;15.77;;;5.10;88.80;;;;;;4425501;28;655396;-66
2021/10/10 06:52:17;;;;;;;40.07;15.67;;;5.30;96.20;;;;;;4409241;28;656689;-66
2021/10/10 06:55:06;;;;;;;43.07;16.33;;;5.40;93.40;;;;;;4425330;28;656592;-67
2021/10/10 06:57:54;;;;;;;43.57;17.27;;;5.50;91.30;;;;;;4430697;28;655855;-66
2021/10/10 07:00:43;;;;;;;39.10;16.20;;;5.50;99.90;;;;;;4406768;28;655380;-65
2021/10/10 07:03:30;;;;;;;40.38;16.05;;;5.60;99.90;;;;;;4406758;28;655609;-66
2021/10/10 07:06:18;;;;;;;40.70;17.07;;;5.80;99.90;;;;;;4428348;28;656076;-66
2021/10/10 07:09:06;;;;;;;41.23;16.33;;;5.90;99.90;;;;;;4406688;28;655535;-67
2021/10/10 07:11:53;;;;;;;40.23;18.03;;;6.00;99.90;;;;;;4432763;28;657009;-65
2021/10/10 07:14:41;;;;;;;41.20;18.10;;;6.20;99.90;;;;;;4411105;28;656053;-66
2021/10/10 07:17:31;;;;;;;45.77;17.17;;;6.30;99.90;;;;;;4429980;28;656805;-65
2021/10/10 07:20:24;;;;;;;43.93;16.60;;;6.40;99.90;;;;;;4407061;28;657021;-65
2021/10/10 07:23:13;;;;;;;42.27;15.83;;;6.60;99.90;;;;;;4388030;28;656338;-66
2021/10/10 07:26:01;;;;;;;39.33;16.13;;;6.80;99.90;;;;;;4408788;28;655608;-67
2021/10/10 07:28:48;;;;;;;41.47;17.70;;;6.90;99.90;;;;;;4433977;28;656689;-66
2021/10/10 07:31:36;;;;;;;41.37;17.37;;;7.10;99.90;;;;;;4416377;28;655470;-66
2021/10/10 07:34:25;;;;;;;39.47;17.17;;;7.30;99.90;;;;;;4440485;28;656554;-66
2021/10/10 07:37:13;;;;;;;41.33;16.65;;;7.50;99.90;;;;;;4422245;28;656699;-66
2021/10/10 07:40:01;;;;;;;35.97;15.73;;;7.70;99.90;;;;;;4430815;28;655694;-67
2021/10/10 07:42:49;;;;;;;40.50;16.70;;;7.80;99.90;;;;;;4437666;28;656094;-66
2021/10/10 07:45:41;;;;;;;37.17;15.20;;;7.90;99.90;;;;;;4418726;28;655605;-66
2021/10/10 07:48:29;;;;;;;34.60;15.77;;;8.00;99.90;;;;;;4422916;28;656482;-67
2021/10/10 07:51:19;;;;;;;39.33;15.77;;;8.20;99.90;;;;;;4428291;28;655638;-67
2021/10/10 07:54:07;;;;;;;33.60;15.37;;;8.20;99.90;;;;;;4425920;28;656185;-67
2021/10/10 07:56:54;;;;;;;38.13;15.07;;;8.30;99.90;;;;;;4442020;28;656642;-67
2021/10/10 07:59:42;;;;;;;38.63;15.67;;;8.30;99.90;;;;;;4417156;28;655952;-66
2021/10/10 08:02:31;;;;;;;29.80;14.40;;;8.60;99.90;;;;;;4445561;28;655586;-67
2021/10/10 08:05:19;;;;;;;37.03;14.77;;;8.80;98.80;;;;;;4428861;28;656508;-67
2021/10/10 08:08:08;;;;;;;33.47;15.13;;;9.10;99.90;;;;;;4426735;28;657256;-68
2021/10/10 08:10:56;;;;;;;31.23;13.40;;;9.50;98.30;;;;;;4427440;28;655486;-69
2021/10/10 08:13:43;;;;;;;32.63;15.07;;;9.70;97.10;;;;;;4443370;28;655971;-67
2021/10/10 08:16:31;;;;;;;35.07;14.30;;;9.80;95.80;;;;;;4426970;28;655572;-68
2021/10/10 08:19:18;;;;;;;34.83;15.00;;;9.80;94.30;;;;;;4442692;28;655876;-67
2021/10/10 08:22:06;;;;;;;34.50;14.20;;;9.80;94.80;;;;;;4421932;28;655440;-66
2021/10/10 08:24:55;;;;;;;35.27;14.23;;;10.00;94.40;;;;;;4439908;28;656418;-65
2021/10/10 08:27:44;;;;;;;33.87;13.80;;;10.20;94.20;;;;;;4409303;28;657569;-67
2021/10/10 08:30:31;;;;;;;29.67;13.10;;;10.80;94.20;;;;;;4426413;28;656661;-67
2021/10/10 08:33:19;;;;;;;35.60;14.23;;;11.10;91.70;;;;;;4447694;28;657113;-67
2021/10/10 08:36:08;;;;;;;31.70;13.23;;;11.30;88.40;;;;;;4427858;28;656951;-67
2021/10/10 08:38:55;;;;;;;35.53;14.60;;;11.50;85.10;;;;;;4430469;28;657554;-67
2021/10/10 08:41:44;;;;;;;33.10;14.43;;;11.70;83.10;;;;;;4440841;28;658064;-67
2021/10/10 08:44:34;;;;;;;28.30;14.07;;;11.90;82.00;;;;;;4425736;28;656560;-67
2021/10/10 08:47:23;;;;;;;29.80;12.77;;;12.20;80.00;;;;;;4428530;28;658491;-68
2021/10/10 08:50:16;;;;;;;30.43;12.63;;;12.30;74.90;;;;;;4423155;28;656785;-68
2021/10/10 08:53:03;;;;;;;27.73;12.40;;;12.50;73.20;;;;;;4424167;28;657130;-67
2021/10/10 08:55:51;;;;;;;24.87;11.87;;;12.40;70.50;;;;;;4428031;28;656283;-67
2021/10/10 08:58:43;;;;;;;31.53;12.83;;;12.50;68.70;;;;;;4447350;28;657619;-67
2021/10/10 09:01:36;;;;;;;23.43;11.17;;;12.40;68.50;;;;;;4405905;28;656818;-67
2021/10/10 09:04:24;;;;;;;32.47;12.53;;;12.70;69.90;;;;;;4417756;28;656921;-67
2021/10/10 09:07:12;;;;;;;26.88;13.15;;;13.20;70.00;;;;;;4428403;28;657037;-68
2021/10/10 09:10:18;;;;;;;36.28;13.23;;;13.10;70.50;;;;;;4444513;28;657057;-67
2021/10/10 09:13:07;;;;;;;31.73;13.33;;;13.10;68.80;;;;;;4409441;28;657148;-67
2021/10/10 09:15:56;;;;;;;30.87;13.90;;;13.10;68.80;;;;;;4440678;28;656925;-67
2021/10/10 09:18:44;;;;;;;34.70;13.70;;;12.40;65.50;;;;;;4416537;28;657389;-67
2021/10/10 09:21:32;;;;;;;35.67;15.03;;;12.60;69.80;;;;;;4425406;28;657012;-67
2021/10/10 09:24:26;;;;;;;32.07;14.27;;;13.10;69.90;;;;;;4447108;28;656735;-67
2021/10/10 09:27:14;;;;;;;28.13;13.43;;;13.30;67.60;;;;;;4422277;28;656913;-67
2021/10/10 09:30:04;;;;;;;32.50;14.93;;;13.60;68.00;;;;;;4425458;28;656561;-68
2021/10/10 09:32:55;;;;;;;33.77;14.77;;;13.90;66.00;;;;;;4423345;28;657221;-68
2021/10/10 09:35:43;;;;;;;26.07;13.43;;;14.10;66.70;;;;;;4418392;28;657839;-68
2021/10/10 09:38:31;;;;;;;31.77;12.83;;;14.30;66.60;;;;;;4427922;28;656590;-67
2021/10/10 09:41:27;;;;;;;34.13;13.70;;;14.40;59.90;;;;;;4437200;28;656184;-67
2021/10/10 09:44:17;;;;;;;28.13;13.20;;;14.50;62.40;;;;;;4426031;28;656599;-67
2021/10/10 09:47:05;;;;;;;31.67;12.10;;;14.30;59.70;;;;;;4425488;28;657348;-67
2021/10/10 09:49:53;;;;;;;25.50;13.10;;;14.50;61.20;;;;;;4423686;28;657251;-67
2021/10/10 09:52:41;;;;;;;28.20;13.47;;;15.00;59.40;;;;;;4429010;28;656440;-68
2021/10/10 09:55:29;;;;;;;26.50;11.33;;;15.10;59.90;;;;;;4447455;28;658244;-68
2021/10/10 09:58:16;;;;;;;27.27;13.73;;;15.50;56.80;;;;;;4429911;28;656407;-68
2021/10/10 10:01:14;;;;;;;20.87;11.33;;;16.00;60.20;;;;;;4447168;28;657299;-66
2021/10/10 10:04:04;;;;;;;29.40;12.30;;;16.40;54.90;;;;;;4425284;28;656553;-67
2021/10/10 10:06:53;;;;;;;27.60;10.70;;;16.70;53.70;;;;;;4427493;28;657025;-67
2021/10/10 10:09:41;;;;;;;30.98;10.93;;;16.70;52.50;;;;;;4424421;28;656585;-67
2021/10/10 10:12:30;;;;;;;24.17;10.27;;;17.10;53.10;;;;;;4448683;28;657655;-67
2021/10/10 10:15:18;;;;;;;26.13;10.73;;;17.20;49.10;;;;;;4420484;28;658019;-67
2021/10/10 10:18:06;;;;;;;25.73;11.05;;;17.10;49.30;;;;;;4431462;28;657333;-67
2021/10/10 10:20:53;;;;;;;26.57;10.50;;;17.40;50.10;;;;;;4451803;28;658232;-67
2021/10/10 10:23:42;;;;;;;24.67;10.60;;;17.60;47.90;;;;;;4421734;28;656704;-67
2021/10/10 10:26:31;;;;;;;22.80;10.90;;;17.80;49.30;;;;;;4447359;28;656138;-67
2021/10/10 10:29:24;;;;;;;20.37;9.60;;;17.80;47.40;;;;;;4418807;28;657527;-67
2021/10/10 10:32:13;;;;;;;20.63;10.53;;;17.50;45.20;;;;;;4402376;28;655985;-67
2021/10/10 10:35:02;;;;;;;24.63;9.80;;;17.00;46.40;;;;;;4424710;28;656092;-67
2021/10/10 10:37:58;;;;;;;20.57;9.30;;;16.60;44.70;;;;;;4451360;28;655503;-66
2021/10/10 10:40:48;;;;;;;23.63;9.00;;;15.90;43.60;;;;;;4406612;28;656032;-67
2021/10/10 10:43:36;;;;;;;27.43;9.73;;;15.70;46.60;;;;;;4441360;28;655829;-67
2021/10/10 10:46:23;;;;;;;22.03;9.70;;;15.50;47.00;;;;;;4446315;28;656744;-66
2021/10/10 10:49:11;;;;;;;20.40;9.85;;;15.40;47.90;;;;;;4430030;28;655393;-67
2021/10/10 10:52:22;;;;;;;24.57;9.90;;;15.40;48.80;;;;;;4451373;28;656816;-66
2021/10/10 10:55:17;;;;;;;21.80;9.67;;;15.40;48.00;;;;;;4421193;28;655781;-66
2021/10/10 10:58:13;;;;;;;23.37;9.13;;;15.40;48.70;;;;;;4420738;28;655909;-66
2021/10/10 11:01:06;;;;;;;17.50;8.23;;;15.30;47.90;;;;;;4403068;28;655955;-67
2021/10/10 11:03:57;;;;;;;24.43;8.57;;;15.30;46.30;;;;;;4425168;28;656312;-66
2021/10/10 11:06:55;;;;;;;19.40;7.63;;;15.10;46.50;;;;;;4426801;28;655696;-67
2021/10/10 11:09:45;;;;;;;19.70;7.93;;;14.80;47.90;;;;;;4431969;28;655334;-66
2021/10/10 11:12:33;;;;;;;17.17;7.43;;;14.60;47.50;;;;;;4416145;28;655992;-67
2021/10/10 11:15:22;;;;;;;19.90;8.35;;;14.40;47.60;;;;;;4430172;28;655732;-66
2021/10/10 11:18:10;;;;;;;24.63;7.10;;;14.20;47.00;;;;;;4448632;28;655469;-67
2021/10/10 11:20:58;;;;;;;16.20;7.13;;;14.10;45.60;;;;;;4418346;28;656238;-65
2021/10/10 11:23:49;;;;;;;13.70;6.15;;;14.00;45.60;;;;;;4434877;28;655471;-66
2021/10/10 11:26:37;;;;;;;13.57;6.20;;;14.20;46.70;;;;;;4428066;28;655656;-66
2021/10/10 11:29:26;;;;;;;20.77;6.40;;;14.90;45.60;;;;;;4441035;28;655681;-65
2021/10/10 11:32:16;;;;;;;20.53;7.07;;;15.70;47.40;;;;;;4424878;28;656278;-66
2021/10/10 11:35:03;;;;;;;15.20;6.47;;;16.20;43.40;;;;;;4420036;28;656353;-66
2021/10/10 11:38:06;;;;;;;26.17;7.60;;;16.10;43.50;;;;;;4427859;28;655652;-65
2021/10/10 11:41:00;;;;;;;14.90;7.07;;;16.10;43.40;;;;;;4417374;28;655868;-65
2021/10/10 11:44:01;;;;;;;18.40;7.27;;;16.10;43.30;;;;;;4430200;28;655587;-66
2021/10/10 11:46:51;;;;;;;21.37;7.10;;;15.90;43.70;;;;;;4421421;28;656378;-66
2021/10/10 11:49:41;;;;;;;18.50;8.13;;;16.40;44.10;;;;;;4424282;28;656372;-66
2021/10/10 11:52:32;;;;;;;15.40;6.23;;;16.90;43.90;;;;;;4423481;28;656572;-66
2021/10/10 11:55:23;;;;;;;16.07;6.70;;;17.30;41.50;;;;;;4443052;28;655697;-67
2021/10/10 11:58:12;;;;;;;20.87;7.67;;;17.20;41.40;;;;;;4424296;28;656029;-66
2021/10/10 12:01:08;;;;;;;19.63;7.90;;;17.60;41.10;;;;;;4433978;28;655210;-66
2021/10/10 12:03:56;;;;;;;18.53;7.10;;;18.20;42.80;;;;;;4402491;28;655120;-67
2021/10/10 12:06:46;;;;;;;14.93;7.47;;;18.70;41.40;;;;;;4443973;28;656060;-66
2021/10/10 12:09:34;;;;;;;17.00;7.77;;;19.00;40.90;;;;;;4418252;28;657195;-67
2021/10/10 12:12:21;;;;;;;21.23;8.00;;;18.60;40.00;;;;;;4420756;28;656192;-66
2021/10/10 12:15:11;;;;;;;16.57;7.53;;;17.80;40.40;;;;;;4446395;28;656606;-67
2021/10/10 12:17:59;;;;;;;23.43;8.00;;;17.20;42.30;;;;;;4418861;28;655925;-66
2021/10/10 12:20:50;;;;;;;18.80;8.23;;;16.90;41.50;;;;;;4421432;28;656101;-67
2021/10/10 12:23:40;;;;;;;25.03;8.70;;;16.60;42.80;;;;;;4418252;28;656581;-66
2021/10/10 12:26:29;;;;;;;17.53;7.20;;;16.20;42.80;;;;;;4419134;28;655565;-67
2021/10/10 12:29:24;;;;;;;23.00;7.87;;;16.30;43.70;;;;;;4426057;28;655344;-66
2021/10/10 12:32:19;;;;;;;19.20;8.23;;;16.40;43.20;;;;;;4365611;28;656311;-66
2021/10/10 12:35:14;;;;;;;20.27;9.40;;;16.20;43.60;;;;;;4404459;28;655179;-66
2021/10/10 12:38:02;;;;;;;21.15;8.60;;;15.90;44.90;;;;;;4403984;28;656679;-66
2021/10/10 12:40:51;;;;;;;21.03;8.63;;;15.40;44.20;;;;;;4429452;28;656111;-65
2021/10/10 12:43:41;;;;;;;15.33;8.30;;;15.30;45.70;;;;;;4406455;28;655848;-67
2021/10/10 12:46:29;;;;;;;19.20;8.70;;;14.90;45.80;;;;;;4411789;28;656917;-65
2021/10/10 12:49:26;;;;;;;29.00;9.53;;;15.10;46.70;;;;;;4410424;28;655324;-65
2021/10/10 12:52:14;;;;;;;23.13;10.33;;;15.40;47.20;;;;;;4406375;28;656091;-66
2021/10/10 12:55:01;;;;;;;28.20;10.03;;;15.80;46.50;;;;;;4408019;28;657105;-66
2021/10/10 12:57:54;;;;;;;28.10;10.20;;;16.00;45.40;;;;;;4428906;28;656736;-65
2021/10/10 13:00:44;;;;;;;25.27;10.73;;;15.80;46.00;;;;;;4384808;28;656854;-66
2021/10/10 13:03:31;;;;;;;23.70;10.37;;;15.50;46.00;;;;;;4399022;28;656364;-65
2021/10/10 13:06:19;;;;;;;27.00;11.50;;;15.10;45.50;;;;;;4432128;28;656697;-65
2021/10/10 13:09:11;;;;;;;33.90;14.53;;;14.80;46.10;;;;;;4413111;28;656905;-65
2021/10/10 13:11:59;;;;;;;29.83;11.27;;;14.50;47.50;;;;;;4408674;28;657711;-65
2021/10/10 13:14:48;;;;;;;28.40;11.37;;;14.00;47.20;;;;;;4412378;28;656292;-66
2021/10/10 13:17:36;;;;;;;20.73;10.13;;;13.60;48.30;;;;;;4412366;28;657721;-65
2021/10/10 13:20:24;;;;;;;22.73;9.97;;;13.30;49.50;;;;;;4430644;28;658923;-66
2021/10/10 13:23:11;;;;;;;24.67;9.97;;;12.90;50.40;;;;;;4409563;28;656630;-66
2021/10/10 13:26:00;;;;;;;26.97;11.27;;;12.60;50.60;;;;;;4431808;28;657844;-65
2021/10/10 13:28:48;;;;;;;22.30;9.52;;;12.40;51.60;;;;;;4411493;28;657963;-65
2021/10/10 13:31:37;;;;;;;23.38;8.90;;;12.20;52.30;;;;;;4416524;28;656891;-66
2021/10/10 13:34:25;;;;;;;19.23;9.10;;;12.00;52.20;;;;;;4431514;28;656345;-65
2021/10/10 13:37:12;;;;;;;20.53;8.73;;;11.90;52.40;;;;;;4408557;28;657260;-66
2021/10/10 13:40:00;;;;;;;21.20;9.70;;;11.80;53.20;;;;;;4414144;28;656724;-65
2021/10/10 13:42:47;;;;;;;28.40;10.07;;;11.80;54.10;;;;;;4390902;28;656615;-66
2021/10/10 13:45:37;;;;;;;25.93;9.53;;;11.80;55.20;;;;;;4420352;28;657350;-66
2021/10/10 13:48:26;;;;;;;24.57;9.77;;;11.80;54.40;;;;;;4431705;28;656700;-66
2021/10/10 13:51:14;;;;;;;26.10;9.20;;;11.90;55.30;;;;;;4407211;28;656801;-65
2021/10/10 13:54:02;;;;;;;21.77;9.10;;;12.00;55.10;;;;;;4412319;28;656735;-66
2021/10/10 13:56:49;;;;;;;27.73;9.97;;;12.10;55.40;;;;;;4431052;28;656262;-66
2021/10/10 13:59:38;;;;;;;28.03;10.77;;;12.20;55.60;;;;;;4412384;28;656478;-65
2021/10/10 14:02:26;;;;;;;25.73;10.10;;;12.10;55.40;;;;;;4415844;28;657527;-65
2021/10/10 14:05:15;;;;;;;16.67;8.57;;;12.10;55.00;;;;;;4428715;28;658321;-65
2021/10/10 14:08:03;;;;;;;24.13;8.23;;;12.10;55.20;;;;;;4405625;28;657276;-64
2021/10/10 14:10:51;;;;;;;28.33;9.10;;;12.10;55.50;;;;;;4419872;28;656534;-67
2021/10/10 14:13:40;;;;;;;28.07;8.67;;;12.10;56.40;;;;;;4433969;28;656832;-65
2021/10/10 14:16:27;;;;;;;17.40;8.43;;;12.00;55.40;;;;;;4407639;28;657678;-65
2021/10/10 14:19:15;;;;;;;23.83;9.00;;;12.00;56.60;;;;;;4434204;28;656763;-65